Terminal Aerodrome Forecast
Issued by NWS Upton, NY

Home | Current Version | Previous Version | Text Only | Print | Product List | Glossary On
Versions: 1 2 3 4 5 6 7 8 9 10 11 12 13 14 15 16 17 18 19 20 21 22 23 24 25 26 27 28 29 30
000
FTUS41 KOKX 251342 AAA
TAFLGA
TAF AMD
KLGA 251342Z 2514/2612 05017G25KT 3SM -RA BR OVC007
     FM251630 05021G29KT 1SM RA BR OVC006
     FM252300 06016G23KT 1SM RA BR OVC005
     FM260400 06014KT 1SM -RA BR OVC005
     FM260800 05010KT 1SM -RA BR OVC005=

USA.gov is the U.S. government's official web portal to all federal, state and local government web resources and services.